sensor_id;sensor_type;location;lat;lon;timestamp;P1;durP1;ratioP1;P2;durP2;ratioP2
68455;SDS011;55437;55.046;38.838;2023-02-11T00:00:15;25.33;;;10.07;;
68455;SDS011;55437;55.046;38.838;2023-02-11T00:02:41;25.67;;;11.05;;
68455;SDS011;55437;55.046;38.838;2023-02-11T00:05:09;22.63;;;10.45;;
68455;SDS011;55437;55.046;38.838;2023-02-11T00:07:35;24.60;;;11.15;;
68455;SDS011;55437;55.046;38.838;2023-02-11T00:10:02;23.95;;;11.02;;
68455;SDS011;55437;55.046;38.838;2023-02-11T00:12:29;23.88;;;10.38;;
68455;SDS011;55437;55.046;38.838;2023-02-11T00:14:56;23.77;;;10.98;;
68455;SDS011;55437;55.046;38.838;2023-02-11T00:17:21;22.77;;;10.45;;
68455;SDS011;55437;55.046;38.838;2023-02-11T00:19:53;22.95;;;9.60;;
68455;SDS011;55437;55.046;38.838;2023-02-11T00:22:18;25.48;;;9.27;;
68455;SDS011;55437;55.046;38.838;2023-02-11T00:24:45;22.10;;;9.60;;
68455;SDS011;55437;55.046;38.838;2023-02-11T00:27:11;23.70;;;9.10;;
68455;SDS011;55437;55.046;38.838;2023-02-11T00:29:37;22.80;;;9.10;;
68455;SDS011;55437;55.046;38.838;2023-02-11T00:32:04;23.92;;;10.13;;
68455;SDS011;55437;55.046;38.838;2023-02-11T00:34:31;24.45;;;10.90;;
68455;SDS011;55437;55.046;38.838;2023-02-11T00:36:57;24.45;;;9.82;;
68455;SDS011;55437;55.046;38.838;2023-02-11T00:39:22;26.73;;;11.43;;
68455;SDS011;55437;55.046;38.838;2023-02-11T00:41:48;24.15;;;10.82;;
68455;SDS011;55437;55.046;38.838;2023-02-11T00:44:14;22.83;;;10.27;;
68455;SDS011;55437;55.046;38.838;2023-02-11T00:46:40;24.63;;;10.82;;
68455;SDS011;55437;55.046;38.838;2023-02-11T00:49:09;21.52;;;9.98;;
68455;SDS011;55437;55.046;38.838;2023-02-11T00:51:35;25.88;;;11.63;;
68455;SDS011;55437;55.046;38.838;2023-02-11T00:54:03;24.55;;;11.15;;
68455;SDS011;55437;55.046;38.838;2023-02-11T00:56:29;22.80;;;10.20;;
68455;SDS011;55437;55.046;38.838;2023-02-11T00:58:55;23.58;;;11.18;;
68455;SDS011;55437;55.046;38.838;2023-02-11T01:01:21;24.33;;;10.75;;
68455;SDS011;55437;55.046;38.838;2023-02-11T01:03:47;30.02;;;12.60;;
68455;SDS011;55437;55.046;38.838;2023-02-11T01:06:13;23.65;;;11.13;;
68455;SDS011;55437;55.046;38.838;2023-02-11T01:08:39;24.17;;;11.07;;
68455;SDS011;55437;55.046;38.838;2023-02-11T01:11:09;25.02;;;10.20;;
68455;SDS011;55437;55.046;38.838;2023-02-11T01:13:38;25.92;;;10.80;;
68455;SDS011;55437;55.046;38.838;2023-02-11T01:16:06;26.38;;;11.25;;
68455;SDS011;55437;55.046;38.838;2023-02-11T01:21:00;24.08;;;9.27;;
68455;SDS011;55437;55.046;38.838;2023-02-11T01:23:25;21.80;;;9.77;;
68455;SDS011;55437;55.046;38.838;2023-02-11T01:25:51;25.60;;;9.50;;
68455;SDS011;55437;55.046;38.838;2023-02-11T01:28:19;21.50;;;9.50;;
68455;SDS011;55437;55.046;38.838;2023-02-11T01:30:47;22.15;;;9.95;;
68455;SDS011;55437;55.046;38.838;2023-02-11T01:33:13;23.98;;;10.02;;
68455;SDS011;55437;55.046;38.838;2023-02-11T01:35:39;26.20;;;10.40;;
68455;SDS011;55437;55.046;38.838;2023-02-11T01:38:06;22.85;;;9.35;;
68455;SDS011;55437;55.046;38.838;2023-02-11T01:40:38;22.85;;;10.27;;
68455;SDS011;55437;55.046;38.838;2023-02-11T01:43:04;21.52;;;9.00;;
68455;SDS011;55437;55.046;38.838;2023-02-11T01:48:12;22.00;;;8.57;;
68455;SDS011;55437;55.046;38.838;2023-02-11T01:50:42;22.17;;;9.30;;
68455;SDS011;55437;55.046;38.838;2023-02-11T01:53:12;25.90;;;9.57;;
68455;SDS011;55437;55.046;38.838;2023-02-11T01:55:58;22.15;;;8.93;;
68455;SDS011;55437;55.046;38.838;2023-02-11T01:58:43;21.58;;;9.38;;
68455;SDS011;55437;55.046;38.838;2023-02-11T02:01:11;27.85;;;10.13;;
68455;SDS011;55437;55.046;38.838;2023-02-11T02:03:41;22.90;;;9.60;;
68455;SDS011;55437;55.046;38.838;2023-02-11T02:06:15;24.08;;;10.02;;
68455;SDS011;55437;55.046;38.838;2023-02-11T02:08:44;20.65;;;10.02;;
68455;SDS011;55437;55.046;38.838;2023-02-11T02:11:16;23.25;;;9.45;;
68455;SDS011;55437;55.046;38.838;2023-02-11T02:13:42;23.88;;;9.23;;
68455;SDS011;55437;55.046;38.838;2023-02-11T02:16:32;20.42;;;8.85;;
68455;SDS011;55437;55.046;38.838;2023-02-11T02:39:02;20.73;;;8.88;;
68455;SDS011;55437;55.046;38.838;2023-02-11T02:41:42;22.52;;;8.70;;
68455;SDS011;55437;55.046;38.838;2023-02-11T02:44:11;23.27;;;8.40;;
68455;SDS011;55437;55.046;38.838;2023-02-11T02:46:36;22.02;;;8.57;;
68455;SDS011;55437;55.046;38.838;2023-02-11T02:49:02;23.77;;;10.10;;
68455;SDS011;55437;55.046;38.838;2023-02-11T03:10:53;20.88;;;8.95;;
68455;SDS011;55437;55.046;38.838;2023-02-11T03:13:22;19.75;;;8.80;;
68455;SDS011;55437;55.046;38.838;2023-02-11T03:15:52;21.75;;;8.00;;
68455;SDS011;55437;55.046;38.838;2023-02-11T03:18:23;21.35;;;8.77;;
68455;SDS011;55437;55.046;38.838;2023-02-11T03:20:52;20.95;;;8.07;;
68455;SDS011;55437;55.046;38.838;2023-02-11T03:37:10;17.67;;;7.72;;
68455;SDS011;55437;55.046;38.838;2023-02-11T03:39:43;17.35;;;6.85;;
68455;SDS011;55437;55.046;38.838;2023-02-11T03:42:13;21.65;;;9.30;;
68455;SDS011;55437;55.046;38.838;2023-02-11T03:44:48;20.45;;;7.20;;
68455;SDS011;55437;55.046;38.838;2023-02-11T03:47:20;19.75;;;8.73;;
68455;SDS011;55437;55.046;38.838;2023-02-11T03:49:49;18.50;;;6.65;;
68455;SDS011;55437;55.046;38.838;2023-02-11T03:52:17;19.42;;;7.82;;
68455;SDS011;55437;55.046;38.838;2023-02-11T03:54:48;23.08;;;8.10;;
68455;SDS011;55437;55.046;38.838;2023-02-11T03:59:50;16.63;;;7.05;;
68455;SDS011;55437;55.046;38.838;2023-02-11T04:02:18;19.50;;;6.85;;
68455;SDS011;55437;55.046;38.838;2023-02-11T04:04:45;18.77;;;6.47;;
68455;SDS011;55437;55.046;38.838;2023-02-11T04:07:11;17.83;;;6.97;;
68455;SDS011;55437;55.046;38.838;2023-02-11T04:09:37;18.95;;;6.60;;
68455;SDS011;55437;55.046;38.838;2023-02-11T04:12:03;15.38;;;6.65;;
68455;SDS011;55437;55.046;38.838;2023-02-11T04:14:29;17.23;;;6.82;;
68455;SDS011;55437;55.046;38.838;2023-02-11T04:16:55;15.15;;;8.07;;
68455;SDS011;55437;55.046;38.838;2023-02-11T04:19:21;18.63;;;6.70;;
68455;SDS011;55437;55.046;38.838;2023-02-11T04:21:47;19.25;;;7.85;;
68455;SDS011;55437;55.046;38.838;2023-02-11T04:24:13;18.98;;;6.63;;
68455;SDS011;55437;55.046;38.838;2023-02-11T04:26:38;19.77;;;7.32;;
68455;SDS011;55437;55.046;38.838;2023-02-11T04:29:04;16.08;;;6.78;;
68455;SDS011;55437;55.046;38.838;2023-02-11T04:31:30;18.77;;;7.50;;
68455;SDS011;55437;55.046;38.838;2023-02-11T04:33:56;16.45;;;6.80;;
68455;SDS011;55437;55.046;38.838;2023-02-11T04:36:21;17.20;;;7.45;;
68455;SDS011;55437;55.046;38.838;2023-02-11T04:38:47;20.50;;;7.63;;
68455;SDS011;55437;55.046;38.838;2023-02-11T04:41:13;19.17;;;7.55;;
68455;SDS011;55437;55.046;38.838;2023-02-11T04:43:39;17.88;;;7.78;;
68455;SDS011;55437;55.046;38.838;2023-02-11T04:46:04;16.95;;;7.68;;
68455;SDS011;55437;55.046;38.838;2023-02-11T04:48:30;16.50;;;7.72;;
68455;SDS011;55437;55.046;38.838;2023-02-11T04:50:56;19.13;;;8.45;;
68455;SDS011;55437;55.046;38.838;2023-02-11T04:53:21;18.50;;;7.70;;
68455;SDS011;55437;55.046;38.838;2023-02-11T04:55:48;21.60;;;7.70;;
68455;SDS011;55437;55.046;38.838;2023-02-11T04:58:15;17.30;;;6.75;;
68455;SDS011;55437;55.046;38.838;2023-02-11T05:00:42;21.02;;;7.47;;
68455;SDS011;55437;55.046;38.838;2023-02-11T05:03:10;19.10;;;7.78;;
68455;SDS011;55437;55.046;38.838;2023-02-11T05:05:38;17.92;;;7.20;;
68455;SDS011;55437;55.046;38.838;2023-02-11T05:08:05;22.27;;;8.43;;
68455;SDS011;55437;55.046;38.838;2023-02-11T05:10:31;18.02;;;8.25;;
68455;SDS011;55437;55.046;38.838;2023-02-11T05:12:57;15.45;;;7.10;;
68455;SDS011;55437;55.046;38.838;2023-02-11T05:15:23;18.13;;;6.93;;
68455;SDS011;55437;55.046;38.838;2023-02-11T05:17:48;19.02;;;8.10;;
68455;SDS011;55437;55.046;38.838;2023-02-11T05:20:15;19.20;;;7.53;;
68455;SDS011;55437;55.046;38.838;2023-02-11T05:22:41;17.70;;;7.30;;
68455;SDS011;55437;55.046;38.838;2023-02-11T05:25:08;23.17;;;7.55;;
68455;SDS011;55437;55.046;38.838;2023-02-11T05:27:34;17.13;;;7.18;;
68455;SDS011;55437;55.046;38.838;2023-02-11T05:30:00;18.33;;;7.30;;
68455;SDS011;55437;55.046;38.838;2023-02-11T05:32:26;19.45;;;7.80;;
68455;SDS011;55437;55.046;38.838;2023-02-11T05:34:51;16.92;;;7.82;;
68455;SDS011;55437;55.046;38.838;2023-02-11T05:37:18;18.65;;;7.43;;
68455;SDS011;55437;55.046;38.838;2023-02-11T05:39:44;18.42;;;7.18;;
68455;SDS011;55437;55.046;38.838;2023-02-11T05:42:11;21.63;;;7.63;;
68455;SDS011;55437;55.046;38.838;2023-02-11T05:44:56;20.45;;;7.40;;
68455;SDS011;55437;55.046;38.838;2023-02-11T05:47:23;22.23;;;7.75;;
68455;SDS011;55437;55.046;38.838;2023-02-11T05:49:50;16.63;;;6.65;;
68455;SDS011;55437;55.046;38.838;2023-02-11T05:52:18;17.60;;;5.78;;
68455;SDS011;55437;55.046;38.838;2023-02-11T05:54:44;18.48;;;6.18;;
68455;SDS011;55437;55.046;38.838;2023-02-11T05:57:10;25.75;;;11.65;;
68455;SDS011;55437;55.046;38.838;2023-02-11T05:59:37;18.98;;;9.18;;
68455;SDS011;55437;55.046;38.838;2023-02-11T06:02:03;17.88;;;5.95;;
68455;SDS011;55437;55.046;38.838;2023-02-11T06:04:29;18.73;;;7.38;;
68455;SDS011;55437;55.046;38.838;2023-02-11T06:06:56;15.25;;;6.70;;
68455;SDS011;55437;55.046;38.838;2023-02-11T06:09:21;18.17;;;7.53;;
68455;SDS011;55437;55.046;38.838;2023-02-11T06:11:47;16.63;;;7.90;;
68455;SDS011;55437;55.046;38.838;2023-02-11T06:14:13;14.98;;;6.35;;
68455;SDS011;55437;55.046;38.838;2023-02-11T06:16:39;14.60;;;6.43;;
68455;SDS011;55437;55.046;38.838;2023-02-11T06:19:04;20.95;;;8.02;;
68455;SDS011;55437;55.046;38.838;2023-02-11T06:21:30;17.52;;;7.57;;
68455;SDS011;55437;55.046;38.838;2023-02-11T06:23:56;18.85;;;7.88;;
68455;SDS011;55437;55.046;38.838;2023-02-11T06:26:22;16.73;;;7.13;;
68455;SDS011;55437;55.046;38.838;2023-02-11T06:28:48;17.00;;;7.53;;
68455;SDS011;55437;55.046;38.838;2023-02-11T06:31:14;15.07;;;6.80;;
68455;SDS011;55437;55.046;38.838;2023-02-11T06:33:40;20.33;;;6.65;;
68455;SDS011;55437;55.046;38.838;2023-02-11T06:36:14;17.92;;;6.50;;
68455;SDS011;55437;55.046;38.838;2023-02-11T06:39:02;19.80;;;7.55;;
68455;SDS011;55437;55.046;38.838;2023-02-11T06:41:28;17.15;;;7.28;;
68455;SDS011;55437;55.046;38.838;2023-02-11T06:43:54;22.55;;;8.82;;
68455;SDS011;55437;55.046;38.838;2023-02-11T06:46:21;17.58;;;8.05;;
68455;SDS011;55437;55.046;38.838;2023-02-11T06:48:47;22.77;;;8.20;;
68455;SDS011;55437;55.046;38.838;2023-02-11T06:51:14;16.15;;;6.20;;
68455;SDS011;55437;55.046;38.838;2023-02-11T06:53:41;20.10;;;8.75;;
68455;SDS011;55437;55.046;38.838;2023-02-11T06:56:28;15.40;;;7.45;;
68455;SDS011;55437;55.046;38.838;2023-02-11T06:58:58;26.13;;;10.77;;
68455;SDS011;55437;55.046;38.838;2023-02-11T07:01:24;23.13;;;9.35;;
68455;SDS011;55437;55.046;38.838;2023-02-11T07:03:52;17.52;;;7.57;;
68455;SDS011;55437;55.046;38.838;2023-02-11T07:06:19;17.20;;;7.28;;
68455;SDS011;55437;55.046;38.838;2023-02-11T07:08:47;18.52;;;7.38;;
68455;SDS011;55437;55.046;38.838;2023-02-11T07:11:14;23.73;;;8.00;;
68455;SDS011;55437;55.046;38.838;2023-02-11T07:14:04;17.17;;;7.10;;
68455;SDS011;55437;55.046;38.838;2023-02-11T07:16:33;16.92;;;6.32;;
68455;SDS011;55437;55.046;38.838;2023-02-11T07:19:07;15.48;;;6.28;;
68455;SDS011;55437;55.046;38.838;2023-02-11T07:21:53;16.67;;;6.03;;
68455;SDS011;55437;55.046;38.838;2023-02-11T07:24:19;12.55;;;5.38;;
68455;SDS011;55437;55.046;38.838;2023-02-11T07:26:45;16.65;;;7.32;;
68455;SDS011;55437;55.046;38.838;2023-02-11T07:29:11;15.82;;;6.05;;
68455;SDS011;55437;55.046;38.838;2023-02-11T07:31:36;18.67;;;7.70;;
68455;SDS011;55437;55.046;38.838;2023-02-11T07:34:06;17.27;;;7.53;;
68455;SDS011;55437;55.046;38.838;2023-02-11T07:36:32;17.27;;;7.72;;
68455;SDS011;55437;55.046;38.838;2023-02-11T07:38:58;16.00;;;7.05;;
68455;SDS011;55437;55.046;38.838;2023-02-11T07:41:24;14.77;;;6.35;;
68455;SDS011;55437;55.046;38.838;2023-02-11T07:43:51;17.75;;;6.00;;
68455;SDS011;55437;55.046;38.838;2023-02-11T07:46:22;16.08;;;6.55;;
68455;SDS011;55437;55.046;38.838;2023-02-11T07:51:18;16.88;;;6.78;;
68455;SDS011;55437;55.046;38.838;2023-02-11T07:53:55;18.17;;;7.30;;
68455;SDS011;55437;55.046;38.838;2023-02-11T07:56:25;15.07;;;7.07;;
68455;SDS011;55437;55.046;38.838;2023-02-11T07:58:54;16.73;;;7.72;;
68455;SDS011;55437;55.046;38.838;2023-02-11T08:01:24;14.27;;;6.90;;
68455;SDS011;55437;55.046;38.838;2023-02-11T08:03:53;18.77;;;7.20;;
68455;SDS011;55437;55.046;38.838;2023-02-11T08:06:21;19.48;;;7.32;;
68455;SDS011;55437;55.046;38.838;2023-02-11T08:08:48;17.20;;;7.13;;
68455;SDS011;55437;55.046;38.838;2023-02-11T08:11:15;13.32;;;6.47;;
68455;SDS011;55437;55.046;38.838;2023-02-11T08:13:46;16.58;;;6.88;;
68455;SDS011;55437;55.046;38.838;2023-02-11T08:18:43;16.30;;;7.03;;
68455;SDS011;55437;55.046;38.838;2023-02-11T08:21:09;20.83;;;8.57;;
68455;SDS011;55437;55.046;38.838;2023-02-11T08:23:36;15.90;;;7.90;;
68455;SDS011;55437;55.046;38.838;2023-02-11T08:26:03;22.27;;;7.10;;
68455;SDS011;55437;55.046;38.838;2023-02-11T08:28:33;16.55;;;8.30;;
68455;SDS011;55437;55.046;38.838;2023-02-11T08:31:07;17.23;;;7.85;;
68455;SDS011;55437;55.046;38.838;2023-02-11T08:33:35;22.27;;;9.20;;
68455;SDS011;55437;55.046;38.838;2023-02-11T08:36:01;18.95;;;7.93;;
68455;SDS011;55437;55.046;38.838;2023-02-11T08:38:42;19.67;;;6.95;;
68455;SDS011;55437;55.046;38.838;2023-02-11T08:41:09;19.77;;;7.05;;
68455;SDS011;55437;55.046;38.838;2023-02-11T08:43:36;18.05;;;6.53;;
68455;SDS011;55437;55.046;38.838;2023-02-11T08:46:06;19.13;;;7.15;;
68455;SDS011;55437;55.046;38.838;2023-02-11T08:48:33;18.23;;;7.50;;
68455;SDS011;55437;55.046;38.838;2023-02-11T08:50:58;17.10;;;6.45;;
68455;SDS011;55437;55.046;38.838;2023-02-11T08:53:25;17.20;;;6.68;;
68455;SDS011;55437;55.046;38.838;2023-02-11T08:55:53;19.73;;;8.85;;
68455;SDS011;55437;55.046;38.838;2023-02-11T08:58:28;15.60;;;7.47;;
68455;SDS011;55437;55.046;38.838;2023-02-11T09:00:54;18.33;;;7.72;;
68455;SDS011;55437;55.046;38.838;2023-02-11T09:03:20;16.02;;;7.00;;
68455;SDS011;55437;55.046;38.838;2023-02-11T09:05:47;18.40;;;7.95;;
68455;SDS011;55437;55.046;38.838;2023-02-11T09:08:14;17.08;;;6.20;;
68455;SDS011;55437;55.046;38.838;2023-02-11T09:10:41;18.80;;;7.32;;
68455;SDS011;55437;55.046;38.838;2023-02-11T09:13:09;14.63;;;6.53;;
68455;SDS011;55437;55.046;38.838;2023-02-11T09:15:43;17.35;;;7.38;;
68455;SDS011;55437;55.046;38.838;2023-02-11T09:18:09;17.98;;;6.53;;
68455;SDS011;55437;55.046;38.838;2023-02-11T09:20:38;15.13;;;6.28;;
68455;SDS011;55437;55.046;38.838;2023-02-11T09:23:03;16.13;;;6.57;;
68455;SDS011;55437;55.046;38.838;2023-02-11T09:28:46;15.10;;;5.38;;
68455;SDS011;55437;55.046;38.838;2023-02-11T09:31:14;13.73;;;5.63;;
68455;SDS011;55437;55.046;38.838;2023-02-11T09:33:42;17.48;;;6.80;;
68455;SDS011;55437;55.046;38.838;2023-02-11T09:36:15;16.40;;;5.80;;
68455;SDS011;55437;55.046;38.838;2023-02-11T09:38:48;18.58;;;6.68;;
68455;SDS011;55437;55.046;38.838;2023-02-11T09:43:51;14.98;;;5.82;;
68455;SDS011;55437;55.046;38.838;2023-02-11T09:46:19;15.90;;;6.40;;
68455;SDS011;55437;55.046;38.838;2023-02-11T09:48:47;17.08;;;5.75;;
68455;SDS011;55437;55.046;38.838;2023-02-11T09:51:19;16.50;;;6.68;;
68455;SDS011;55437;55.046;38.838;2023-02-11T09:53:51;16.92;;;5.80;;
68455;SDS011;55437;55.046;38.838;2023-02-11T09:56:22;13.82;;;6.38;;
68455;SDS011;55437;55.046;38.838;2023-02-11T09:58:49;15.10;;;6.07;;
68455;SDS011;55437;55.046;38.838;2023-02-11T10:06:46;14.57;;;6.97;;
68455;SDS011;55437;55.046;38.838;2023-02-11T10:09:27;15.18;;;6.13;;
68455;SDS011;55437;55.046;38.838;2023-02-11T10:15:03;15.90;;;6.18;;
68455;SDS011;55437;55.046;38.838;2023-02-11T10:20:35;11.82;;;5.25;;
68455;SDS011;55437;55.046;38.838;2023-02-11T10:23:18;14.05;;;6.20;;
68455;SDS011;55437;55.046;38.838;2023-02-11T10:25:53;15.05;;;6.03;;
68455;SDS011;55437;55.046;38.838;2023-02-11T10:28:34;17.73;;;5.60;;
68455;SDS011;55437;55.046;38.838;2023-02-11T10:31:08;15.18;;;7.47;;
68455;SDS011;55437;55.046;38.838;2023-02-11T10:33:57;15.68;;;6.00;;
68455;SDS011;55437;55.046;38.838;2023-02-11T10:36:50;15.02;;;5.50;;
68455;SDS011;55437;55.046;38.838;2023-02-11T10:39:19;14.63;;;5.45;;
68455;SDS011;55437;55.046;38.838;2023-02-11T10:41:52;16.00;;;5.85;;
68455;SDS011;55437;55.046;38.838;2023-02-11T10:46:55;15.63;;;5.95;;
68455;SDS011;55437;55.046;38.838;2023-02-11T10:52:26;16.80;;;5.63;;
68455;SDS011;55437;55.046;38.838;2023-02-11T10:54:56;15.25;;;6.15;;
68455;SDS011;55437;55.046;38.838;2023-02-11T10:57:49;18.80;;;6.70;;
68455;SDS011;55437;55.046;38.838;2023-02-11T11:03:04;14.13;;;6.13;;
68455;SDS011;55437;55.046;38.838;2023-02-11T11:05:56;13.80;;;5.45;;
68455;SDS011;55437;55.046;38.838;2023-02-11T11:08:43;16.48;;;7.72;;
68455;SDS011;55437;55.046;38.838;2023-02-11T11:11:17;17.92;;;7.03;;
68455;SDS011;55437;55.046;38.838;2023-02-11T11:13:56;14.27;;;6.00;;
68455;SDS011;55437;55.046;38.838;2023-02-11T11:16:32;16.00;;;6.47;;
68455;SDS011;55437;55.046;38.838;2023-02-11T11:24:09;19.95;;;6.70;;
68455;SDS011;55437;55.046;38.838;2023-02-11T11:26:54;17.52;;;6.22;;
68455;SDS011;55437;55.046;38.838;2023-02-11T11:29:30;18.10;;;6.43;;
68455;SDS011;55437;55.046;38.838;2023-02-11T11:32:15;16.77;;;6.60;;
68455;SDS011;55437;55.046;38.838;2023-02-11T11:34:50;13.90;;;6.13;;
68455;SDS011;55437;55.046;38.838;2023-02-11T11:40:07;17.73;;;6.15;;
68455;SDS011;55437;55.046;38.838;2023-02-11T11:42:40;18.58;;;7.05;;
68455;SDS011;55437;55.046;38.838;2023-02-11T11:48:05;22.60;;;6.65;;
68455;SDS011;55437;55.046;38.838;2023-02-11T11:50:41;17.73;;;5.65;;
68455;SDS011;55437;55.046;38.838;2023-02-11T11:56:03;16.17;;;5.90;;
68455;SDS011;55437;55.046;38.838;2023-02-11T11:58:32;14.55;;;6.45;;
68455;SDS011;55437;55.046;38.838;2023-02-11T12:01:19;18.08;;;6.43;;
68455;SDS011;55437;55.046;38.838;2023-02-11T12:04:04;16.52;;;6.43;;
68455;SDS011;55437;55.046;38.838;2023-02-11T12:09:29;18.08;;;6.25;;
68455;SDS011;55437;55.046;38.838;2023-02-11T12:12:22;19.83;;;6.20;;
68455;SDS011;55437;55.046;38.838;2023-02-11T12:15:48;16.83;;;6.35;;
68455;SDS011;55437;55.046;38.838;2023-02-11T12:31:26;18.65;;;7.07;;
68455;SDS011;55437;55.046;38.838;2023-02-11T12:34:11;19.92;;;7.20;;
68455;SDS011;55437;55.046;38.838;2023-02-11T12:39:38;17.23;;;7.25;;
68455;SDS011;55437;55.046;38.838;2023-02-11T12:56:21;21.90;;;7.50;;
68455;SDS011;55437;55.046;38.838;2023-02-11T12:58:54;20.17;;;7.28;;
68455;SDS011;55437;55.046;38.838;2023-02-11T13:06:59;18.23;;;7.60;;
68455;SDS011;55437;55.046;38.838;2023-02-11T13:09:50;19.05;;;7.80;;
68455;SDS011;55437;55.046;38.838;2023-02-11T13:12:24;20.05;;;8.38;;
68455;SDS011;55437;55.046;38.838;2023-02-11T13:15:13;19.63;;;8.32;;
68455;SDS011;55437;55.046;38.838;2023-02-11T13:20:53;17.63;;;7.47;;
68455;SDS011;55437;55.046;38.838;2023-02-11T13:32:09;24.65;;;9.90;;
68455;SDS011;55437;55.046;38.838;2023-02-11T13:37:25;21.33;;;8.93;;
68455;SDS011;55437;55.046;38.838;2023-02-11T13:39:59;19.35;;;7.80;;
68455;SDS011;55437;55.046;38.838;2023-02-11T13:42:33;19.45;;;7.78;;
68455;SDS011;55437;55.046;38.838;2023-02-11T13:45:26;22.17;;;7.50;;
68455;SDS011;55437;55.046;38.838;2023-02-11T13:48:01;21.95;;;9.05;;
68455;SDS011;55437;55.046;38.838;2023-02-11T13:50:31;19.30;;;7.88;;
68455;SDS011;55437;55.046;38.838;2023-02-11T13:53:02;21.33;;;7.70;;
68455;SDS011;55437;55.046;38.838;2023-02-11T13:55:31;23.60;;;8.60;;
68455;SDS011;55437;55.046;38.838;2023-02-11T14:11:51;18.50;;;6.80;;
68455;SDS011;55437;55.046;38.838;2023-02-11T14:14:47;23.77;;;7.38;;
68455;SDS011;55437;55.046;38.838;2023-02-11T14:17:28;22.65;;;7.57;;
68455;SDS011;55437;55.046;38.838;2023-02-11T14:19:58;20.15;;;6.88;;
68455;SDS011;55437;55.046;38.838;2023-02-11T14:25:22;35.95;;;14.77;;
68455;SDS011;55437;55.046;38.838;2023-02-11T14:28:23;21.50;;;7.63;;
68455;SDS011;55437;55.046;38.838;2023-02-11T14:31:01;20.73;;;7.50;;
68455;SDS011;55437;55.046;38.838;2023-02-11T14:33:49;17.33;;;7.53;;
68455;SDS011;55437;55.046;38.838;2023-02-11T14:39:46;26.20;;;8.77;;
68455;SDS011;55437;55.046;38.838;2023-02-11T14:42:16;20.98;;;8.55;;
68455;SDS011;55437;55.046;38.838;2023-02-11T14:44:54;21.98;;;9.05;;
68455;SDS011;55437;55.046;38.838;2023-02-11T14:47:35;18.33;;;7.18;;
68455;SDS011;55437;55.046;38.838;2023-02-11T14:50:24;21.73;;;7.80;;
68455;SDS011;55437;55.046;38.838;2023-02-11T14:52:53;24.30;;;7.50;;
68455;SDS011;55437;55.046;38.838;2023-02-11T14:55:28;21.30;;;8.40;;
68455;SDS011;55437;55.046;38.838;2023-02-11T14:58:10;24.35;;;8.45;;
68455;SDS011;55437;55.046;38.838;2023-02-11T15:00:45;21.80;;;8.82;;
68455;SDS011;55437;55.046;38.838;2023-02-11T15:06:04;20.80;;;8.13;;
68455;SDS011;55437;55.046;38.838;2023-02-11T15:08:48;19.30;;;8.68;;
68455;SDS011;55437;55.046;38.838;2023-02-11T15:11:17;24.92;;;7.72;;
68455;SDS011;55437;55.046;38.838;2023-02-11T15:13:51;21.00;;;8.52;;
68455;SDS011;55437;55.046;38.838;2023-02-11T15:16:22;22.33;;;8.50;;
68455;SDS011;55437;55.046;38.838;2023-02-11T15:18:54;23.88;;;8.60;;
68455;SDS011;55437;55.046;38.838;2023-02-11T15:21:28;24.90;;;9.38;;
68455;SDS011;55437;55.046;38.838;2023-02-11T15:24:00;47.42;;;22.20;;
68455;SDS011;55437;55.046;38.838;2023-02-11T15:26:28;30.25;;;10.18;;
68455;SDS011;55437;55.046;38.838;2023-02-11T15:28:54;21.77;;;9.52;;
68455;SDS011;55437;55.046;38.838;2023-02-11T15:31:22;31.15;;;16.75;;
68455;SDS011;55437;55.046;38.838;2023-02-11T15:33:50;24.17;;;9.45;;
68455;SDS011;55437;55.046;38.838;2023-02-11T15:36:19;21.73;;;8.95;;
68455;SDS011;55437;55.046;38.838;2023-02-11T15:41:44;24.20;;;8.48;;
68455;SDS011;55437;55.046;38.838;2023-02-11T15:44:31;22.77;;;8.57;;
68455;SDS011;55437;55.046;38.838;2023-02-11T15:46:57;19.40;;;8.77;;
68455;SDS011;55437;55.046;38.838;2023-02-11T15:49:23;25.95;;;8.73;;
68455;SDS011;55437;55.046;38.838;2023-02-11T15:51:52;21.70;;;11.40;;
68455;SDS011;55437;55.046;38.838;2023-02-11T15:54:25;26.83;;;9.85;;
68455;SDS011;55437;55.046;38.838;2023-02-11T15:56:59;20.52;;;7.72;;
68455;SDS011;55437;55.046;38.838;2023-02-11T15:59:35;19.67;;;8.07;;
68455;SDS011;55437;55.046;38.838;2023-02-11T16:02:32;15.77;;;6.82;;
68455;SDS011;55437;55.046;38.838;2023-02-11T16:05:03;19.45;;;7.53;;
68455;SDS011;55437;55.046;38.838;2023-02-11T16:07:47;18.88;;;8.20;;
68455;SDS011;55437;55.046;38.838;2023-02-11T16:10:22;20.23;;;8.32;;
68455;SDS011;55437;55.046;38.838;2023-02-11T16:13:00;20.40;;;9.65;;
68455;SDS011;55437;55.046;38.838;2023-02-11T16:16:02;20.08;;;8.43;;
68455;SDS011;55437;55.046;38.838;2023-02-11T16:18:38;27.95;;;8.80;;
68455;SDS011;55437;55.046;38.838;2023-02-11T16:21:15;19.25;;;8.40;;
68455;SDS011;55437;55.046;38.838;2023-02-11T16:23:53;15.32;;;7.60;;
68455;SDS011;55437;55.046;38.838;2023-02-11T16:26:32;25.20;;;8.32;;
68455;SDS011;55437;55.046;38.838;2023-02-11T16:29:02;20.77;;;8.00;;
68455;SDS011;55437;55.046;38.838;2023-02-11T16:31:36;18.83;;;8.10;;
68455;SDS011;55437;55.046;38.838;2023-02-11T16:34:16;23.23;;;9.02;;
68455;SDS011;55437;55.046;38.838;2023-02-11T16:36:47;25.65;;;9.10;;
68455;SDS011;55437;55.046;38.838;2023-02-11T16:39:15;24.85;;;9.02;;
68455;SDS011;55437;55.046;38.838;2023-02-11T16:41:44;25.33;;;9.05;;
68455;SDS011;55437;55.046;38.838;2023-02-11T16:44:14;26.42;;;11.50;;
68455;SDS011;55437;55.046;38.838;2023-02-11T16:46:41;23.70;;;8.95;;
68455;SDS011;55437;55.046;38.838;2023-02-11T16:49:29;24.02;;;9.65;;
68455;SDS011;55437;55.046;38.838;2023-02-11T16:52:05;21.48;;;8.30;;
68455;SDS011;55437;55.046;38.838;2023-02-11T16:54:33;22.60;;;10.15;;
68455;SDS011;55437;55.046;38.838;2023-02-11T16:57:04;25.50;;;10.57;;
68455;SDS011;55437;55.046;38.838;2023-02-11T16:59:38;30.77;;;12.55;;
68455;SDS011;55437;55.046;38.838;2023-02-11T17:02:07;19.08;;;7.25;;
68455;SDS011;55437;55.046;38.838;2023-02-11T17:05:17;23.02;;;9.75;;
68455;SDS011;55437;55.046;38.838;2023-02-11T17:07:47;31.48;;;10.68;;
68455;SDS011;55437;55.046;38.838;2023-02-11T17:10:17;29.42;;;9.60;;
68455;SDS011;55437;55.046;38.838;2023-02-11T17:12:48;29.15;;;12.38;;
68455;SDS011;55437;55.046;38.838;2023-02-11T17:15:18;28.80;;;11.95;;
68455;SDS011;55437;55.046;38.838;2023-02-11T17:17:44;23.30;;;8.93;;
68455;SDS011;55437;55.046;38.838;2023-02-11T17:20:19;24.55;;;9.98;;
68455;SDS011;55437;55.046;38.838;2023-02-11T17:23:03;29.02;;;11.88;;
68455;SDS011;55437;55.046;38.838;2023-02-11T17:25:29;32.95;;;11.90;;
68455;SDS011;55437;55.046;38.838;2023-02-11T17:27:55;34.28;;;13.02;;
68455;SDS011;55437;55.046;38.838;2023-02-11T17:30:24;31.85;;;11.90;;
68455;SDS011;55437;55.046;38.838;2023-02-11T17:32:49;22.08;;;9.35;;
68455;SDS011;55437;55.046;38.838;2023-02-11T17:35:17;30.25;;;11.82;;
68455;SDS011;55437;55.046;38.838;2023-02-11T17:37:45;25.02;;;10.25;;
68455;SDS011;55437;55.046;38.838;2023-02-11T17:40:11;26.52;;;10.20;;
68455;SDS011;55437;55.046;38.838;2023-02-11T17:42:38;26.05;;;11.05;;
68455;SDS011;55437;55.046;38.838;2023-02-11T17:45:12;29.08;;;11.73;;